Huvudsida
METAR-TAF:

METAR-TAF

Flygplatser :

Mariehamns flygplats

Mariehamn, Finland

latitud: 60-07N, longitud: 019-54E, höjd: 6 m

Aktuellt väderrapport

Denna rapport gjordes för 24 minuter sedan, klockan 04:20 UTC
Vind 7 kt från väst, varierande mellan syd/sydväst och nord/nordväst
Temperatur 3°C
Fuktighet 81%
Tryck 994 hPa
Sikt 10 km eller mer
Inga moln under 1 500 m eller inga cumulonimbus

METAR: EFMA 190420Z AUTO 26007KT 200V330 CAVOK 03/00 Q0994

Tid: 06:44 (04:44 UTC)

Väderprognos

Denna rapport gjordes för 2 timmar och 18 minuter sedan, klockan 02:26 UTC
Prognos gäller från 19 kl. 03 UTC till 19 kl. 12 UTC
Vind 8 kt från väst/sydväst
Sikt 10 km eller mer
Inga moln under 1 500 m eller inga cumulonimbus
Sannolikhet 30% :
Temporärt
från 19 kl. 07 UTC till 19 kl. 09 UTC
Brutna moln på en höjd av 1000 ft

TAF: EFMA 190226Z 1903/1912 25008KT CAVOK PROB30 TEMPO 1907/1909 BKN010

Aktuella väderrapporter och prognoser från 4000 flygplatser (METAR- och TAF-rapporter).

De tillgängliga stationerna syns som gula och röda prickar på kartan.

För musen över prickarna för att se namnen på stationerna.

Klicka sedan för att få väderrapporter och prognoser.

För att ändra kartan: Klicka på de gröna knapparna med ett svart kors på för att zooma in; den gröna knappen med ett streck på för att zooma ut; eller på de gröna pilarna för angränsande kartor.


METAR-TAF: